Time;durP1;ratioP1;P1;durP2;ratioP2;P2;SDS_P1;SDS_P2;PMS_P1;PMS_P2;Temp;Humidity;BMP_temperature;BMP_pressure;BME280_temperature;BME280_humidity;BME280_pressure;Samples;Min_cycle;Max_cycle;Signal;HPM_P1;HPM_P2
2022/08/14 00:01:43;;;;;;;;;;;;;;;24.20;55.63;101022.09;4996761;28;5204;-76
2022/08/14 00:04:20;;;;;;;;;;;;;;;24.19;55.60;101020.66;4996385;28;4220;-76
2022/08/14 00:07:07;;;;;;;;;;;;;;;24.20;55.71;101022.09;4996070;28;5356;-77
2022/08/14 00:09:33;;;;;;;;;;;;;;;24.20;55.70;101018.50;4997101;28;4174;-76
2022/08/14 00:12:20;;;;;;;;;;;;;;;24.20;55.73;101015.59;4996387;28;4227;-76
2022/08/14 00:14:50;;;;;;;;;;;;;;;24.20;55.75;101016.31;5002222;28;3985;-77
2022/08/14 00:17:20;;;;;;;;;;;;;;;24.20;55.71;101021.38;5003284;28;4052;-78
2022/08/14 00:19:47;;;;;;;;;;;;;;;24.20;55.56;101025.00;4999612;28;5353;-78
2022/08/14 00:22:17;;;;;;;;;;;;;;;24.19;55.57;101020.66;5000592;28;4086;-77
2022/08/14 00:25:04;;;;;;;;;;;;;;;24.19;55.54;101014.84;5000280;28;4264;-75
2022/08/14 00:27:31;;;;;;;;;;;;;;;24.20;55.29;101021.38;4999082;28;4466;-77
2022/08/14 00:30:06;;;;;;;;;;;;;;;24.20;55.56;101016.31;4999140;28;4057;-76
2022/08/14 00:32:35;;;;;;;;;;;;;;;24.20;55.54;101004.75;5000650;28;4339;-76
2022/08/14 00:35:21;;;;;;;;;;;;;;;24.20;55.32;101010.53;4997940;28;4083;-73
2022/08/14 00:38:08;;;;;;;;;;;;;;;24.21;55.41;101006.25;4998253;28;4343;-76
2022/08/14 00:40:35;;;;;;;;;;;;;;;24.21;55.49;101000.47;4999688;28;4349;-77
2022/08/14 00:43:01;;;;;;;;;;;;;;;24.21;55.56;101003.34;4997445;28;5376;-76
2022/08/14 00:45:27;;;;;;;;;;;;;;;24.21;55.46;100999.69;4999932;28;4082;-75
2022/08/14 00:47:57;;;;;;;;;;;;;;;24.20;55.54;101001.84;5001249;28;4918;-76
2022/08/14 00:50:27;;;;;;;;;;;;;;;24.22;55.76;101004.09;4999084;28;5276;-77
2022/08/14 00:52:54;;;;;;;;;;;;;;;24.20;55.54;101004.75;5001670;28;3989;-77
2022/08/14 00:55:21;;;;;;;;;;;;;;;24.21;55.84;101003.34;5000847;28;4160;-75
2022/08/14 01:00:33;;;;;;;;;;;;;;;24.21;55.71;100994.66;5000648;28;4158;-76
2022/08/14 01:03:17;;;;;;;;;;;;;;;24.20;55.71;101001.84;5001816;28;4956;-77
2022/08/14 01:05:48;;;;;;;;;;;;;;;24.21;55.92;100994.66;5001004;28;4146;-76
2022/08/14 01:08:18;;;;;;;;;;;;;;;24.20;55.87;100981.59;5000702;28;4199;-77
2022/08/14 01:11:04;;;;;;;;;;;;;;;24.20;55.85;100990.28;5000312;28;4082;-76
2022/08/14 01:13:32;;;;;;;;;;;;;;;24.20;56.19;100986.66;5000179;28;5176;-76
2022/08/14 01:16:09;;;;;;;;;;;;;;;24.21;56.14;100994.66;5000740;28;4235;-76
2022/08/14 01:21:40;;;;;;;;;;;;;;;24.21;56.17;100993.91;4997383;28;4168;-77
2022/08/14 01:24:20;;;;;;;;;;;;;;;24.20;55.93;100993.19;4999065;28;4245;-76
2022/08/14 01:26:56;;;;;;;;;;;;;;;24.19;55.80;100991.72;4998652;28;4175;-76
2022/08/14 01:29:26;;;;;;;;;;;;;;;24.20;56.10;100992.44;4994574;28;5193;-76
2022/08/14 01:32:12;;;;;;;;;;;;;;;24.20;56.33;100987.41;4995495;28;4543;-76
2022/08/14 01:34:40;;;;;;;;;;;;;;;24.21;56.42;100983.09;5013511;28;4007;-76
2022/08/14 01:37:27;;;;;;;;;;;;;;;24.21;56.17;100986.00;4998289;28;4012;-75
2022/08/14 01:39:56;;;;;;;;;;;;;;;24.20;56.56;100987.41;4999576;28;4043;-75
2022/08/14 01:42:24;;;;;;;;;;;;;;;24.19;56.90;100983.03;4999044;28;5666;-75
2022/08/14 01:44:57;;;;;;;;;;;;;;;24.19;56.99;100983.03;4998979;28;5299;-75
2022/08/14 01:47:24;;;;;;;;;;;;;;;24.18;57.17;100983.69;4999434;28;5438;-76
2022/08/14 01:49:50;;;;;;;;;;;;;;;24.18;57.49;100984.44;5000059;28;4154;-75
2022/08/14 01:52:29;;;;;;;;;;;;;;;24.17;57.89;100988.00;5000342;28;4164;-73
2022/08/14 01:55:16;;;;;;;;;;;;;;;24.16;58.34;100981.47;4998683;28;6431;-76
2022/08/14 01:57:42;;;;;;;;;;;;;;;24.17;57.96;100979.34;4998672;28;5327;-75
2022/08/14 02:00:27;;;;;;;;;;;;;;;24.16;58.45;100981.47;4998985;28;4517;-75
2022/08/14 02:02:57;;;;;;;;;;;;;;;24.17;58.66;100976.44;4999992;28;4203;-75
2022/08/14 02:05:30;;;;;;;;;;;;;;;24.17;58.58;100982.97;5002464;28;4148;-75
2022/08/14 02:08:04;;;;;;;;;;;;;;;24.16;58.64;100981.47;5003821;28;4234;-75
2022/08/14 02:10:36;;;;;;;;;;;;;;;24.15;59.05;100980.00;4999275;28;5634;-75
2022/08/14 02:13:12;;;;;;;;;;;;;;;24.15;58.64;100973.47;5002838;28;4221;-76
2022/08/14 02:15:41;;;;;;;;;;;;;;;24.15;58.78;100980.00;5003602;28;5255;-76
2022/08/14 02:18:09;;;;;;;;;;;;;;;24.15;59.10;100977.09;5003007;28;5342;-75
2022/08/14 02:20:37;;;;;;;;;;;;;;;24.15;59.13;100985.78;5002684;28;4213;-75
2022/08/14 02:23:05;;;;;;;;;;;;;;;24.14;59.24;100984.28;5003528;28;4283;-75
2022/08/14 02:25:33;;;;;;;;;;;;;;;24.14;59.60;100981.41;5003405;28;4600;-75
2022/08/14 02:28:00;;;;;;;;;;;;;;;24.13;59.42;100982.81;5003279;28;4993;-74
2022/08/14 02:30:47;;;;;;;;;;;;;;;24.13;59.78;100971.25;5003484;28;4176;-75
2022/08/14 02:33:17;;;;;;;;;;;;;;;24.14;59.65;100978.50;5004521;28;4174;-75
2022/08/14 02:35:44;;;;;;;;;;;;;;;24.14;59.81;100983.56;5001970;28;4185;-76
2022/08/14 02:38:18;;;;;;;;;;;;;;;24.14;59.78;100974.88;5002398;28;5256;-75
2022/08/14 02:41:00;;;;;;;;;;;;;;;24.13;59.94;100959.69;5001967;28;4561;-76
2022/08/14 02:43:29;;;;;;;;;;;;;;;24.13;60.14;100964.72;5002087;28;4083;-74
2022/08/14 02:46:02;;;;;;;;;;;;;;;24.13;60.11;100962.56;5003737;28;5282;-76
2022/08/14 02:48:34;;;;;;;;;;;;;;;24.13;60.33;100964.72;5001181;28;4350;-75
2022/08/14 02:51:21;;;;;;;;;;;;;;;24.12;60.27;100964.00;5002439;28;4147;-76
2022/08/14 02:53:48;;;;;;;;;;;;;;;24.12;60.42;100955.31;5002487;28;4145;-75
2022/08/14 02:56:18;;;;;;;;;;;;;;;24.13;60.51;100958.94;5001183;28;5342;-75
2022/08/14 02:59:05;;;;;;;;;;;;;;;24.13;60.55;100958.94;5002233;28;5024;-74
2022/08/14 03:01:31;;;;;;;;;;;;;;;24.12;60.64;100964.00;5007159;28;4213;-75
2022/08/14 03:04:16;;;;;;;;;;;;;;;24.12;60.65;100952.44;5002164;28;4233;-75
2022/08/14 03:06:45;;;;;;;;;;;;;;;24.13;60.77;100958.94;5002462;28;4156;-75
2022/08/14 03:09:32;;;;;;;;;;;;;;;24.13;61.16;100953.88;5002096;28;5242;-75
2022/08/14 03:12:19;;;;;;;;;;;;;;;24.12;60.95;100952.44;5002484;28;4223;-75
2022/08/14 03:14:58;;;;;;;;;;;;;;;24.12;60.90;100940.09;5001976;28;4042;-76
2022/08/14 03:17:25;;;;;;;;;;;;;;;24.11;61.14;100942.25;5002134;28;5227;-75
2022/08/14 03:19:57;;;;;;;;;;;;;;;24.12;61.36;100940.84;5002848;28;4050;-74
2022/08/14 03:22:24;;;;;;;;;;;;;;;24.12;61.22;100949.53;5001043;28;5528;-75
2022/08/14 03:24:53;;;;;;;;;;;;;;;24.12;61.50;100945.88;5002456;28;4230;-75
2022/08/14 03:27:19;;;;;;;;;;;;;;;24.11;61.48;100953.09;5001776;28;5299;-75
2022/08/14 03:29:51;;;;;;;;;;;;;;;24.11;61.62;100950.94;5000662;28;5070;-74
2022/08/14 03:32:19;;;;;;;;;;;;;;;24.11;61.61;100945.16;5001528;28;4125;-75
2022/08/14 03:34:55;;;;;;;;;;;;;;;24.12;61.73;100945.88;5001573;28;5221;-75
2022/08/14 03:37:25;;;;;;;;;;;;;;;24.12;61.69;100940.09;5002115;28;5208;-75
2022/08/14 03:40:11;;;;;;;;;;;;;;;24.11;62.09;100944.41;5002074;28;4131;-75
2022/08/14 03:42:43;;;;;;;;;;;;;;;24.11;61.86;100933.56;5002230;28;4351;-76
2022/08/14 03:45:10;;;;;;;;;;;;;;;24.12;62.15;100937.19;5002137;28;4313;-76
2022/08/14 03:47:58;;;;;;;;;;;;;;;24.12;62.08;100928.53;5001647;28;4553;-76
2022/08/14 03:50:27;;;;;;;;;;;;;;;24.11;61.91;100933.56;5000451;28;5087;-75
2022/08/14 03:52:59;;;;;;;;;;;;;;;24.12;62.04;100929.28;5003162;28;5189;-75
2022/08/14 03:55:27;;;;;;;;;;;;;;;24.12;62.19;100923.50;5000353;28;4075;-75
2022/08/14 03:57:55;;;;;;;;;;;;;;;24.12;62.26;100928.53;5002564;28;4049;-73
2022/08/14 04:00:22;;;;;;;;;;;;;;;24.11;62.36;100922.00;5000500;28;4233;-74
2022/08/14 04:03:09;;;;;;;;;;;;;;;24.11;62.19;100922.00;5002588;28;5295;-75
2022/08/14 04:05:36;;;;;;;;;;;;;;;24.11;62.45;100922.00;4999474;28;4192;-75
2022/08/14 04:08:13;;;;;;;;;;;;;;;24.11;62.21;100922.00;5001557;28;5237;-75
2022/08/14 04:10:56;;;;;;;;;;;;;;;24.11;62.49;100924.16;5000322;28;4290;-75
2022/08/14 04:13:23;;;;;;;;;;;;;;;24.10;62.29;100926.31;5001778;28;4158;-74
2022/08/14 04:15:52;;;;;;;;;;;;;;;24.11;62.23;100932.84;5002002;28;4053;-74
2022/08/14 04:18:28;;;;;;;;;;;;;;;24.10;62.41;100926.31;4998843;28;4065;-74
2022/08/14 04:20:56;;;;;;;;;;;;;;;24.10;62.12;100932.09;5000979;28;4042;-72
2022/08/14 04:23:23;;;;;;;;;;;;;;;24.10;62.21;100926.31;5000901;28;4044;-73
2022/08/14 04:25:59;;;;;;;;;;;;;;;24.10;62.51;100929.22;5000405;28;5370;-75
2022/08/14 04:28:25;;;;;;;;;;;;;;;24.10;62.52;100926.31;4998091;28;6369;-74
2022/08/14 04:31:12;;;;;;;;;;;;;;;24.10;62.52;100932.09;4999469;28;4070;-74
2022/08/14 04:33:40;;;;;;;;;;;;;;;24.10;62.67;100926.31;4999587;28;4058;-75
2022/08/14 04:36:07;;;;;;;;;;;;;;;24.10;62.54;100932.09;5000005;28;4239;-75
2022/08/14 04:43:35;;;;;;;;;;;;;;;24.10;62.80;100932.09;4998642;28;4317;-74
2022/08/14 04:44:19;;;;;;;;;;;;;;;24.10;62.57;100926.31;5000182;28;4147;-74
2022/08/14 04:49:46;;;;;;;;;;;;;;;24.09;63.04;100936.41;4999187;28;4122;-75
2022/08/14 04:52:22;;;;;;;;;;;;;;;24.09;62.67;100927.72;4999366;28;4192;-74
2022/08/14 04:54:50;;;;;;;;;;;;;;;24.09;62.90;100924.81;4999051;28;4048;-75
2022/08/14 04:57:16;;;;;;;;;;;;;;;24.09;63.06;100916.16;4999580;28;4213;-75
2022/08/14 04:59:44;;;;;;;;;;;;;;;24.09;63.12;100919.03;4999301;28;4088;-75
2022/08/14 05:02:12;;;;;;;;;;;;;;;24.08;62.96;100911.78;4998337;28;4040;-75
2022/08/14 05:04:39;;;;;;;;;;;;;;;24.09;62.80;100913.25;4999106;28;5231;-75
2022/08/14 05:07:22;;;;;;;;;;;;;;;24.08;63.12;100914.69;4999255;28;4164;-75
2022/08/14 05:10:09;;;;;;;;;;;;;;;24.08;63.07;100914.69;4999241;28;4223;-74
2022/08/14 05:12:39;;;;;;;;;;;;;;;24.08;63.20;100906.00;4999584;28;5249;-75
2022/08/14 05:15:28;;;;;;;;;;;;;;;24.08;63.34;100908.91;4999175;28;4207;-75
2022/08/14 05:18:01;;;;;;;;;;;;;;;24.09;63.39;100907.47;4999206;28;4229;-75
2022/08/14 05:20:45;;;;;;;;;;;;;;;24.08;63.35;100911.78;4999056;28;4237;-76
2022/08/14 05:23:33;;;;;;;;;;;;;;;24.09;63.71;100907.47;4998826;28;4345;-75
2022/08/14 05:26:02;;;;;;;;;;;;;;;24.10;63.76;100902.41;4999620;28;4099;-75
2022/08/14 05:28:29;;;;;;;;;;;;;;;24.09;63.68;100895.16;4997964;28;4046;-76
2022/08/14 05:31:00;;;;;;;;;;;;;;;24.08;63.96;100906.00;4998758;28;4062;-75
2022/08/14 05:33:29;;;;;;;;;;;;;;;24.08;64.22;100908.91;4998432;28;4073;-75
2022/08/14 05:35:59;;;;;;;;;;;;;;;24.08;64.25;100903.13;4998704;28;4024;-75
2022/08/14 05:38:27;;;;;;;;;;;;;;;24.08;64.44;100896.59;4999263;28;4227;-75
2022/08/14 05:40:57;;;;;;;;;;;;;;;24.08;64.72;100894.44;4998757;28;4130;-75
2022/08/14 05:43:23;;;;;;;;;;;;;;;24.08;64.75;100894.44;4997751;28;5275;-75
2022/08/14 05:46:07;;;;;;;;;;;;;;;24.09;64.47;100895.91;4999098;28;5526;-75
2022/08/14 05:48:34;;;;;;;;;;;;;;;24.09;64.62;100889.38;4997686;28;4437;-75
2022/08/14 05:51:08;;;;;;;;;;;;;;;24.08;64.63;100888.66;4999180;28;4131;-76
2022/08/14 05:53:35;;;;;;;;;;;;;;;24.10;64.66;100893.75;4999021;28;4402;-75
2022/08/14 05:56:07;;;;;;;;;;;;;;;24.10;64.94;100879.28;4999421;28;4261;-75
2022/08/14 05:58:34;;;;;;;;;;;;;;;24.10;64.85;100887.94;4997974;28;4521;-75
2022/08/14 06:01:08;;;;;;;;;;;;;;;24.10;64.75;100885.81;4998857;28;4333;-76
2022/08/14 06:03:35;;;;;;;;;;;;;;;24.10;64.70;100891.59;4999726;28;5405;-75
2022/08/14 06:06:05;;;;;;;;;;;;;;;24.09;64.99;100890.09;4998967;28;4196;-75
2022/08/14 06:08:32;;;;;;;;;;;;;;;24.10;64.98;100885.81;4996626;28;4065;-76
2022/08/14 06:11:07;;;;;;;;;;;;;;;24.10;64.95;100891.59;4998663;28;4138;-75
2022/08/14 06:13:39;;;;;;;;;;;;;;;24.10;65.02;100877.13;4997808;28;6287;-75
2022/08/14 06:16:11;;;;;;;;;;;;;;;24.09;65.39;100866.97;4998135;28;4064;-75
2022/08/14 06:18:38;;;;;;;;;;;;;;;24.10;65.23;100864.81;4997781;28;4128;-76
2022/08/14 06:21:04;;;;;;;;;;;;;;;24.10;64.81;100859.78;4998525;28;4143;-75
2022/08/14 06:23:38;;;;;;;;;;;;;;;24.10;65.00;100862.69;4997630;28;4201;-75
2022/08/14 06:26:05;;;;;;;;;;;;;;;24.10;65.21;100862.69;4998435;28;4064;-74
2022/08/14 06:28:31;;;;;;;;;;;;;;;24.10;65.20;100859.78;4998339;28;4179;-74
2022/08/14 06:30:59;;;;;;;;;;;;;;;24.11;65.02;100854.72;4997900;28;4061;-75
2022/08/14 06:33:25;;;;;;;;;;;;;;;24.12;64.33;100853.31;4998097;28;5204;-75
2022/08/14 06:36:12;;;;;;;;;;;;;;;24.11;64.38;100843.91;4998678;28;4172;-75
2022/08/14 06:38:43;;;;;;;;;;;;;;;24.12;64.15;100842.50;4998598;28;4036;-75
2022/08/14 06:41:10;;;;;;;;;;;;;;;24.13;63.59;100843.97;4997875;28;5231;-74
2022/08/14 06:43:44;;;;;;;;;;;;;;;24.12;63.65;100839.59;4998275;28;4084;-74
2022/08/14 06:46:13;;;;;;;;;;;;;;;24.12;63.16;100833.81;4996591;28;4063;-75
2022/08/14 06:48:57;;;;;;;;;;;;;;;24.13;63.27;100849.00;4998980;28;4173;-76
2022/08/14 06:51:24;;;;;;;;;;;;;;;24.13;63.01;100846.84;5000544;28;4238;-75
2022/08/14 06:54:04;;;;;;;;;;;;;;;24.12;62.67;100854.06;5001586;28;5079;-74
2022/08/14 06:56:33;;;;;;;;;;;;;;;24.12;62.73;100854.06;4998543;28;4161;-76
2022/08/14 06:59:00;;;;;;;;;;;;;;;24.12;62.51;100851.16;5001290;28;4168;-75
2022/08/14 07:07:06;;;;;;;;;;;;;;;24.12;62.17;100848.28;5001744;28;4304;-75
2022/08/14 07:09:33;;;;;;;;;;;;;;;24.13;62.12;100854.78;5000638;28;4187;-74
2022/08/14 07:12:16;;;;;;;;;;;;;;;24.12;62.18;100845.38;5000219;28;5236;-74
2022/08/14 07:15:03;;;;;;;;;;;;;;;24.12;62.24;100851.16;5001739;28;5957;-75
2022/08/14 07:17:30;;;;;;;;;;;;;;;24.13;62.09;100849.00;5000624;28;5231;-76
2022/08/14 07:20:01;;;;;;;;;;;;;;;24.13;62.08;100855.53;5001692;28;5286;-75
2022/08/14 07:22:27;;;;;;;;;;;;;;;24.13;61.96;100843.97;5000684;28;4212;-75
2022/08/14 07:25:14;;;;;;;;;;;;;;;24.13;61.91;100843.22;5000597;28;5357;-74
2022/08/14 07:27:40;;;;;;;;;;;;;;;24.13;61.86;100838.16;5000112;28;4493;-75
2022/08/14 07:30:08;;;;;;;;;;;;;;;24.13;61.81;100832.38;5000533;28;4076;-75
2022/08/14 07:32:54;;;;;;;;;;;;;;;24.13;61.73;100826.59;5000126;28;4247;-75
2022/08/14 07:35:21;;;;;;;;;;;;;;;24.13;61.81;100820.81;5001003;28;4074;-74
2022/08/14 07:37:48;;;;;;;;;;;;;;;24.13;61.62;100825.88;5001475;28;4158;-74
2022/08/14 07:40:17;;;;;;;;;;;;;;;24.13;61.62;100825.88;4999574;28;5341;-75
2022/08/14 07:42:53;;;;;;;;;;;;;;;24.12;61.62;100819.34;5001159;28;4222;-75
2022/08/14 07:45:19;;;;;;;;;;;;;;;24.13;61.25;100825.88;5001130;28;4167;-74
2022/08/14 07:47:47;;;;;;;;;;;;;;;24.13;61.17;100823.69;4999454;28;4170;-74
2022/08/14 07:50:15;;;;;;;;;;;;;;;24.12;61.29;100819.34;5001477;28;4033;-75
2022/08/14 07:52:43;;;;;;;;;;;;;;;24.04;61.68;100814.03;4999501;28;4190;-74
2022/08/14 07:55:11;;;;;;;;;;;;;;;24.11;61.15;100812.06;4999456;28;4277;-74
2022/08/14 07:57:39;;;;;;;;;;;;;;;24.12;61.14;100813.56;5000908;28;4375;-75
2022/08/14 08:00:10;;;;;;;;;;;;;;;24.11;61.03;100812.06;5000354;28;4210;-74
2022/08/14 08:02:58;;;;;;;;;;;;;;;24.10;61.28;100810.59;4999668;28;4111;-74
2022/08/14 08:05:26;;;;;;;;;;;;;;;24.10;61.08;100816.38;4998848;28;4879;-74
2022/08/14 08:07:52;;;;;;;;;;;;;;;24.10;60.77;100810.59;5001367;28;4156;-74
2022/08/14 08:10:32;;;;;;;;;;;;;;;24.10;60.71;100807.72;5000088;28;4183;-75
2022/08/14 08:13:18;;;;;;;;;;;;;;;24.11;60.94;100797.59;5000004;28;4230;-75
2022/08/14 08:15:50;;;;;;;;;;;;;;;24.11;60.80;100806.28;5001081;28;4166;-75
2022/08/14 08:18:16;;;;;;;;;;;;;;;24.11;60.67;100800.50;5000268;28;4080;-74
2022/08/14 08:20:54;;;;;;;;;;;;;;;24.12;60.52;100804.13;5000383;28;5268;-74
2022/08/14 08:23:28;;;;;;;;;;;;;;;24.11;60.53;100800.50;5000177;28;3966;-74
2022/08/14 08:26:06;;;;;;;;;;;;;;;24.12;60.52;100812.81;4999758;28;3985;-74
2022/08/14 08:28:32;;;;;;;;;;;;;;;24.12;60.80;100812.81;4999546;28;4125;-73
2022/08/14 08:31:00;;;;;;;;;;;;;;;24.12;60.60;100807.03;5000089;28;5147;-73
2022/08/14 08:33:27;;;;;;;;;;;;;;;24.12;60.63;100802.00;4999923;28;4166;-74
2022/08/14 08:36:02;;;;;;;;;;;;;;;24.13;60.48;100809.25;4999424;28;5371;-73
2022/08/14 08:38:28;;;;;;;;;;;;;;;24.13;60.53;100800.56;4999342;28;4125;-74
2022/08/14 08:41:15;;;;;;;;;;;;;;;24.13;60.47;100794.78;4998963;28;4086;-74
2022/08/14 08:43:42;;;;;;;;;;;;;;;24.12;60.40;100793.31;5003166;28;4100;-73
2022/08/14 08:46:15;;;;;;;;;;;;;;;24.12;60.40;100790.41;4999386;28;4149;-74
2022/08/14 08:48:52;;;;;;;;;;;;;;;24.13;60.46;100774.53;4999528;28;4110;-73
2022/08/14 08:51:21;;;;;;;;;;;;;;;24.13;60.29;100794.78;4999956;28;4112;-73
2022/08/14 08:54:03;;;;;;;;;;;;;;;24.14;60.03;100790.44;4999652;28;4484;-74
2022/08/14 08:56:33;;;;;;;;;;;;;;;24.13;60.20;100780.31;4997923;28;4164;-74
2022/08/14 08:59:17;;;;;;;;;;;;;;;24.13;59.98;100786.09;4999040;28;4204;-74
2022/08/14 09:01:46;;;;;;;;;;;;;;;24.14;59.91;100781.03;4998544;28;4159;-74
2022/08/14 09:04:18;;;;;;;;;;;;;;;24.14;60.06;100778.88;4999562;28;4199;-74
2022/08/14 09:06:46;;;;;;;;;;;;;;;24.14;60.07;100770.19;4998535;28;5202;-75
2022/08/14 09:09:32;;;;;;;;;;;;;;;24.15;59.97;100765.19;4998490;28;4106;-74
2022/08/14 09:12:00;;;;;;;;;;;;;;;24.15;60.01;100768.06;4999354;28;4409;-74
2022/08/14 09:14:28;;;;;;;;;;;;;;;24.14;59.78;100764.41;4998430;28;5297;-74
2022/08/14 09:16:57;;;;;;;;;;;;;;;24.14;59.94;100770.19;4999306;28;4104;-74
2022/08/14 09:19:24;;;;;;;;;;;;;;;24.14;59.93;100757.91;4996187;28;5251;-74
2022/08/14 09:21:53;;;;;;;;;;;;;;;24.16;59.84;100755.06;4999314;28;4269;-73
2022/08/14 09:24:20;;;;;;;;;;;;;;;24.15;59.71;100765.91;4999075;28;4044;-72
2022/08/14 09:26:56;;;;;;;;;;;;;;;24.16;60.03;100749.28;4998740;28;4244;-73
2022/08/14 09:29:23;;;;;;;;;;;;;;;24.15;59.67;100754.34;4999304;28;6338;-72
2022/08/14 09:31:54;;;;;;;;;;;;;;;24.15;59.80;100747.81;4998432;28;4135;-73
2022/08/14 09:34:33;;;;;;;;;;;;;;;24.15;59.93;100757.22;4998423;28;4115;-73
2022/08/14 09:37:10;;;;;;;;;;;;;;;24.15;59.67;100754.34;4998985;28;4285;-74
2022/08/14 09:39:41;;;;;;;;;;;;;;;24.16;59.86;100750.00;4998708;28;5111;-75
2022/08/14 09:42:27;;;;;;;;;;;;;;;24.16;59.57;100744.22;4999137;28;5574;-73
2022/08/14 09:45:09;;;;;;;;;;;;;;;24.15;59.74;100734.09;4996802;28;4145;-74
2022/08/14 09:47:39;;;;;;;;;;;;;;;24.15;59.63;100728.31;4998764;28;4108;-74
2022/08/14 09:50:17;;;;;;;;;;;;;;;24.16;59.55;100735.56;4998451;28;4184;-74
2022/08/14 09:52:47;;;;;;;;;;;;;;;24.16;59.67;100735.56;4999248;28;4207;-74
2022/08/14 09:55:20;;;;;;;;;;;;;;;24.17;59.50;100728.38;4998863;28;4018;-74
2022/08/14 09:57:47;;;;;;;;;;;;;;;24.16;59.41;100723.97;4997556;28;5162;-74
2022/08/14 10:00:15;;;;;;;;;;;;;;;24.16;59.53;100721.09;4998841;28;4278;-73
2022/08/14 10:03:01;;;;;;;;;;;;;;;24.16;59.55;100732.66;4998116;28;4898;-73
2022/08/14 10:05:32;;;;;;;;;;;;;;;24.17;59.58;100722.56;4997630;28;4250;-74
2022/08/14 10:07:59;;;;;;;;;;;;;;;24.16;59.58;100721.09;4998434;28;5280;-73
2022/08/14 10:10:36;;;;;;;;;;;;;;;24.18;59.45;100720.41;4997814;28;4243;-73
2022/08/14 10:13:19;;;;;;;;;;;;;;;24.17;59.46;100716.78;4997978;28;4123;-74
2022/08/14 10:15:45;;;;;;;;;;;;;;;24.16;59.51;100709.50;4998665;28;4059;-73
2022/08/14 10:18:12;;;;;;;;;;;;;;;24.18;59.61;100700.16;4998501;28;5458;-74
2022/08/14 10:20:51;;;;;;;;;;;;;;;24.17;59.23;100698.69;4998609;28;4472;-72
2022/08/14 10:23:18;;;;;;;;;;;;;;;24.18;59.37;100689.31;4998567;28;4057;-74
2022/08/14 10:25:49;;;;;;;;;;;;;;;24.18;59.44;100694.38;4999814;28;5294;-73
2022/08/14 10:28:19;;;;;;;;;;;;;;;24.18;59.40;100689.31;5001945;28;4210;-74
2022/08/14 10:31:14;;;;;;;;;;;;;;;24.18;59.50;100674.84;5001703;28;4175;-74
2022/08/14 10:33:40;;;;;;;;;;;;;;;24.18;59.34;100671.97;5000497;28;4221;-74
2022/08/14 10:36:07;;;;;;;;;;;;;;;24.18;59.49;100660.38;5000264;28;4264;-72
2022/08/14 10:38:41;;;;;;;;;;;;;;;24.18;59.31;100654.59;5002554;28;5384;-73
2022/08/14 10:41:15;;;;;;;;;;;;;;;24.19;59.05;100661.88;5000267;28;4572;-74
2022/08/14 10:43:43;;;;;;;;;;;;;;;24.18;59.25;100648.81;5000353;28;4577;-73
2022/08/14 10:46:16;;;;;;;;;;;;;;;24.18;59.22;100643.03;5000540;28;5389;-74
2022/08/14 10:49:02;;;;;;;;;;;;;;;24.19;59.13;100637.97;5000826;28;4215;-74
2022/08/14 10:51:31;;;;;;;;;;;;;;;24.18;59.40;100648.81;5000463;28;4172;-73
2022/08/14 10:54:06;;;;;;;;;;;;;;;24.18;59.24;100642.31;5001910;28;4310;-73
2022/08/14 10:56:54;;;;;;;;;;;;;;;24.18;59.29;100634.34;5002412;28;4470;-73
2022/08/14 10:59:24;;;;;;;;;;;;;;;24.18;59.52;100643.03;5001982;28;4251;-72
2022/08/14 11:01:58;;;;;;;;;;;;;;;24.19;59.41;100637.97;5001475;28;5299;-73
2022/08/14 11:04:27;;;;;;;;;;;;;;;24.20;59.55;100642.34;5000851;28;6047;-73
2022/08/14 11:06:56;;;;;;;;;;;;;;;24.19;59.70;100632.19;5001131;28;4076;-74
2022/08/14 11:09:22;;;;;;;;;;;;;;;24.20;59.50;100628.63;5000843;28;4225;-72
2022/08/14 11:11:55;;;;;;;;;;;;;;;24.19;59.78;100630.06;5001614;28;4209;-73
2022/08/14 11:14:41;;;;;;;;;;;;;;;24.19;60.00;100615.59;5001543;28;4173;-74
2022/08/14 11:17:08;;;;;;;;;;;;;;;24.20;59.74;100622.84;5000902;28;4154;-73
2022/08/14 11:19:34;;;;;;;;;;;;;;;24.19;59.99;100618.47;5000605;28;5434;-74
2022/08/14 11:22:01;;;;;;;;;;;;;;;24.20;59.81;100617.06;5001422;28;5889;-73
2022/08/14 11:24:31;;;;;;;;;;;;;;;24.20;59.90;100617.06;5001121;28;4215;-73
2022/08/14 11:27:17;;;;;;;;;;;;;;;24.21;59.95;100615.66;5001091;28;5344;-73
2022/08/14 11:29:44;;;;;;;;;;;;;;;24.20;59.74;100608.38;5000251;28;4038;-73
2022/08/14 11:32:18;;;;;;;;;;;;;;;24.21;59.98;100618.53;5002010;28;4733;-73
2022/08/14 11:34:45;;;;;;;;;;;;;;;24.22;59.66;100625.78;5001778;28;4905;-73
2022/08/14 11:37:11;;;;;;;;;;;;;;;24.21;60.05;100618.53;5001335;28;5280;-72
2022/08/14 11:39:52;;;;;;;;;;;;;;;24.21;60.04;100615.66;5000892;28;4464;-73
2022/08/14 11:42:19;;;;;;;;;;;;;;;24.21;60.14;100612.75;4995935;28;4245;-73
2022/08/14 11:45:06;;;;;;;;;;;;;;;24.22;59.81;100601.91;4991969;28;4112;-74
2022/08/14 11:47:42;;;;;;;;;;;;;;;24.22;60.02;100599.03;4992501;28;3995;-72
2022/08/14 11:50:29;;;;;;;;;;;;;;;24.23;59.96;100597.59;5000175;28;5248;-73
2022/08/14 11:53:02;;;;;;;;;;;;;;;24.23;60.01;100595.44;4999428;28;5461;-74
2022/08/14 11:55:33;;;;;;;;;;;;;;;24.23;60.03;100600.47;5000100;28;4180;-74
2022/08/14 11:58:02;;;;;;;;;;;;;;;24.23;60.07;100595.44;5000952;28;4045;-72
2022/08/14 12:00:30;;;;;;;;;;;;;;;24.24;59.97;100596.19;4997493;28;5516;-72
2022/08/14 12:03:05;;;;;;;;;;;;;;;24.27;60.12;100585.41;4999880;28;5320;-71
2022/08/14 12:05:33;;;;;;;;;;;;;;;24.27;60.28;100580.34;4995949;28;4354;-71
2022/08/14 12:08:01;;;;;;;;;;;;;;;24.27;60.34;100576.72;4999890;28;5386;-72
2022/08/14 12:10:36;;;;;;;;;;;;;;;24.28;60.58;100581.06;4998698;28;5279;-72
2022/08/14 12:13:11;;;;;;;;;;;;;;;24.27;60.25;100568.03;4999646;28;4137;-72
2022/08/14 12:15:38;;;;;;;;;;;;;;;24.25;60.18;100572.34;5000015;28;4215;-71
2022/08/14 12:18:10;;;;;;;;;;;;;;;24.31;61.46;100568.88;4995188;28;4055;-74
2022/08/14 12:20:45;;;;;;;;;;;;;;;24.29;60.68;100565.19;4997700;28;4170;-70
2022/08/14 12:23:24;;;;;;;;;;;;;;;24.31;60.13;100562.34;4997449;28;4762;-74
2022/08/14 12:26:03;;;;;;;;;;;;;;;24.28;60.33;100558.69;4998498;28;4355;-71
2022/08/14 12:28:50;;;;;;;;;;;;;;;24.29;60.50;100556.50;4996670;28;4257;-74
2022/08/14 12:31:25;;;;;;;;;;;;;;;24.29;60.44;100545.66;4999045;28;4084;-73
2022/08/14 12:34:01;;;;;;;;;;;;;;;24.31;60.31;100556.56;4999286;28;4235;-70
2022/08/14 12:36:36;;;;;;;;;;;;;;;24.33;60.51;100542.16;4996890;28;4196;-70
2022/08/14 12:39:04;;;;;;;;;;;;;;;24.33;60.30;100547.94;5001065;28;4248;-72
2022/08/14 12:41:32;;;;;;;;;;;;;;;24.33;60.31;100534.19;4999221;28;5345;-71
2022/08/14 12:44:03;;;;;;;;;;;;;;;24.33;60.25;100542.16;4999604;28;4614;-71
2022/08/14 12:46:40;;;;;;;;;;;;;;;24.33;60.58;100536.38;4998859;28;4495;-73
2022/08/14 12:49:12;;;;;;;;;;;;;;;24.33;60.61;100536.38;5000433;28;5432;-73
2022/08/14 12:51:42;;;;;;;;;;;;;;;24.35;60.57;100539.28;5000132;28;4108;-73
2022/08/14 12:54:13;;;;;;;;;;;;;;;24.36;60.73;100532.09;5000865;28;4028;-74
2022/08/14 12:57:26;;;;;;;;;;;;;;;24.36;60.69;100527.03;5000037;28;4180;-73
2022/08/14 12:59:58;;;;;;;;;;;;;;;24.36;60.74;100524.13;4975530;28;4206;-75
2022/08/14 13:02:28;;;;;;;;;;;;;;;24.36;60.56;100520.53;4996598;28;4183;-72
2022/08/14 13:04:56;;;;;;;;;;;;;;;24.36;60.90;100514.72;5000078;28;4501;-76
2022/08/14 13:07:25;;;;;;;;;;;;;;;24.38;60.84;100511.88;4999500;28;5475;-72
2022/08/14 13:09:58;;;;;;;;;;;;;;;24.38;60.87;100509.00;4999586;28;4238;-72
2022/08/14 13:12:28;;;;;;;;;;;;;;;24.39;60.65;100504.66;4999408;28;4056;-73
2022/08/14 13:15:00;;;;;;;;;;;;;;;24.38;60.94;100494.53;5003166;28;4549;-72
2022/08/14 13:17:40;;;;;;;;;;;;;;;24.39;60.82;100493.09;4997854;28;5346;-67
2022/08/14 13:20:06;;;;;;;;;;;;;;;24.41;60.80;100496.03;4999144;28;4562;-72
2022/08/14 13:22:36;;;;;;;;;;;;;;;24.42;60.72;100491.75;4996963;28;5314;-73
2022/08/14 13:25:08;;;;;;;;;;;;;;;24.42;60.83;100471.47;4998397;28;6458;-73
2022/08/14 13:27:35;;;;;;;;;;;;;;;24.43;60.87;100470.03;4998107;28;5465;-71
2022/08/14 13:30:05;;;;;;;;;;;;;;;24.48;61.01;100465.84;4996937;28;4370;-66
2022/08/14 13:32:38;;;;;;;;;;;;;;;24.47;60.96;100464.38;4997342;28;4166;-71
2022/08/14 13:35:05;;;;;;;;;;;;;;;24.47;61.19;100461.50;4999339;28;4219;-70